Time;durP1;ratioP1;P1;durP2;ratioP2;P2;SDS_P1;SDS_P2;PMS_P1;PMS_P2;Temp;Humidity;BMP_temperature;BMP_pressure;BME280_temperature;BME280_humidity;BME280_pressure;Samples;Min_cycle;Max_cycle;Signal;HPM_P1;HPM_P2
2021/12/12 00:01:35;;;;;;;8.02;3.28;;;5.30;84.40;;;;;;5079845;28;20036;-72
2021/12/12 00:04:13;;;;;;;5.47;2.83;;;5.30;84.50;;;;;;5084400;28;20371;-70
2021/12/12 00:06:45;;;;;;;8.07;3.05;;;5.30;84.30;;;;;;5083785;28;20047;-70
2021/12/12 00:09:16;;;;;;;6.72;3.17;;;5.30;84.30;;;;;;5023080;28;20563;-73
2021/12/12 00:12:10;;;;;;;5.90;2.30;;;5.30;84.20;;;;;;1753806;28;10022769;-73
2021/12/12 00:14:37;;;;;;;5.00;2.22;;;5.30;84.10;;;;;;3987312;28;10001458;-72
2021/12/12 00:17:07;;;;;;;6.28;2.67;;;5.30;84.20;;;;;;5028630;28;20461;-73
2021/12/12 00:19:35;;;;;;;6.00;2.47;;;5.30;84.00;;;;;;5028009;28;20045;-73
2021/12/12 00:22:06;;;;;;;6.82;2.42;;;5.30;84.10;;;;;;5027070;28;20045;-71
2021/12/12 00:24:34;;;;;;;6.88;2.38;;;5.30;84.10;;;;;;5028411;28;20128;-73
2021/12/12 00:27:02;;;;;;;7.15;3.15;;;5.30;84.00;;;;;;5027826;28;20052;-72
2021/12/12 00:29:32;;;;;;;6.55;2.42;;;5.30;84.00;;;;;;5025528;28;20053;-71
2021/12/12 00:32:03;;;;;;;6.55;3.13;;;5.30;84.00;;;;;;5025387;28;20049;-71
2021/12/12 00:34:35;;;;;;;7.85;2.83;;;5.30;84.00;;;;;;5025129;28;20132;-72
2021/12/12 00:37:04;;;;;;;8.93;2.92;;;5.30;83.90;;;;;;5026809;28;20045;-71
2021/12/12 00:39:34;;;;;;;6.15;2.65;;;5.30;83.80;;;;;;5006367;28;20038;-70
2021/12/12 00:42:06;;;;;;;6.83;2.60;;;5.30;83.90;;;;;;5020202;28;20041;-70
2021/12/12 00:44:37;;;;;;;9.10;3.08;;;5.30;83.80;;;;;;5020013;28;20053;-70
2021/12/12 00:47:07;;;;;;;6.65;2.47;;;5.30;83.70;;;;;;5021322;28;20689;-72
2021/12/12 00:49:36;;;;;;;7.28;2.92;;;5.30;83.80;;;;;;5020472;28;20381;-71
2021/12/12 00:52:07;;;;;;;9.15;3.58;;;5.30;83.70;;;;;;5018610;28;20462;-69
2021/12/12 00:54:35;;;;;;;7.00;4.13;;;5.30;83.60;;;;;;5016903;28;20041;-70
2021/12/12 00:57:05;;;;;;;19.35;8.32;;;5.30;83.60;;;;;;4998909;28;20064;-69
2021/12/12 00:59:32;;;;;;;16.88;6.85;;;5.30;83.60;;;;;;5026323;28;20053;-70
2021/12/12 01:02:00;;;;;;;15.70;5.90;;;5.20;83.40;;;;;;5024796;28;20052;-71
2021/12/12 01:04:36;;;;;;;7.72;3.53;;;5.30;83.20;;;;;;5026287;28;20045;-69
2021/12/12 01:07:07;;;;;;;5.55;2.45;;;5.30;83.00;;;;;;5025271;28;20111;-70
2021/12/12 01:09:38;;;;;;;5.93;2.63;;;5.20;82.70;;;;;;5028120;28;20055;-71
2021/12/12 01:12:16;;;;;;;5.50;2.75;;;5.20;82.70;;;;;;5026088;28;20046;-69
2021/12/12 01:14:50;;;;;;;6.15;2.38;;;5.20;82.70;;;;;;5027802;28;20049;-71
2021/12/12 01:17:20;;;;;;;4.28;1.98;;;5.20;82.70;;;;;;5012684;28;20089;-71
2021/12/12 01:19:58;;;;;;;5.75;2.58;;;5.20;82.70;;;;;;5021130;28;20088;-71
2021/12/12 01:22:32;;;;;;;6.28;1.85;;;5.20;82.60;;;;;;5023153;28;20523;-70
2021/12/12 01:25:02;;;;;;;7.22;2.40;;;5.20;82.70;;;;;;5019429;28;20045;-72
2021/12/12 01:27:34;;;;;;;6.45;2.38;;;5.10;82.70;;;;;;5027393;28;20049;-71
2021/12/12 01:30:01;;;;;;;5.60;2.45;;;5.10;82.60;;;;;;5024706;28;20050;-71
2021/12/12 01:32:32;;;;;;;4.80;2.17;;;5.10;82.70;;;;;;5026267;28;20575;-71
2021/12/12 01:34:59;;;;;;;4.93;2.08;;;5.10;82.60;;;;;;5026265;28;20126;-73
2021/12/12 01:37:39;;;;;;;2.60;1.40;;;5.00;82.60;;;;;;5022975;28;20045;-71
2021/12/12 01:40:14;;;;;;;7.22;2.15;;;5.00;82.60;;;;;;5022241;28;20103;-70
2021/12/12 01:42:45;;;;;;;4.85;1.58;;;5.00;82.60;;;;;;5019333;28;20033;-71
2021/12/12 01:45:14;;;;;;;;;;;5.00;82.40;;;;;;5024443;28;20041;-72
2021/12/12 01:47:47;;;;;;;3.47;1.45;;;4.90;82.30;;;;;;5009461;28;19929;-70
2021/12/12 01:50:18;;;;;;;3.22;1.67;;;4.90;82.30;;;;;;5025272;28;20041;-71
2021/12/12 01:52:47;;;;;;;6.68;1.70;;;4.80;82.20;;;;;;5020158;28;20095;-72
2021/12/12 01:55:23;;;;;;;6.10;1.90;;;4.80;82.10;;;;;;5023549;28;20029;-71
2021/12/12 01:57:51;;;;;;;5.47;2.17;;;4.70;82.10;;;;;;5028620;28;20053;-72
2021/12/12 02:00:22;;;;;;;6.72;1.77;;;4.70;82.00;;;;;;5025893;28;20033;-71
2021/12/12 02:02:50;;;;;;;4.28;1.88;;;4.70;82.10;;;;;;5021913;28;20048;-72
2021/12/12 02:05:20;;;;;;;5.40;1.52;;;4.60;81.90;;;;;;5019586;28;20099;-71
2021/12/12 02:07:56;;;;;;;5.57;2.30;;;4.60;81.90;;;;;;5017276;28;20060;-72
2021/12/12 02:10:26;;;;;;;5.97;2.50;;;4.50;81.90;;;;;;5001837;28;20057;-72
2021/12/12 02:12:56;;;;;;;4.72;2.10;;;4.40;81.80;;;;;;5024478;28;20099;-71
2021/12/12 02:15:24;;;;;;;5.82;2.45;;;4.40;81.80;;;;;;5018878;28;20537;-71
2021/12/12 02:17:52;;;;;;;5.43;2.05;;;4.40;81.90;;;;;;5019527;28;20049;-71
2021/12/12 02:20:27;;;;;;;3.90;1.63;;;4.40;81.80;;;;;;5015554;28;21042;-71
2021/12/12 02:23:06;;;;;;;3.78;1.65;;;4.30;81.80;;;;;;5019751;28;20052;-71
2021/12/12 02:36:38;;;;;;;4.45;2.40;;;4.20;81.70;;;;;;5021502;28;20037;-71
2021/12/12 02:39:15;;;;;;;4.72;1.67;;;4.20;81.80;;;;;;5020649;28;20045;-71
2021/12/12 02:41:44;;;;;;;2.50;1.30;;;4.20;81.80;;;;;;5018774;28;20072;-71
2021/12/12 02:44:12;;;;;;;5.25;1.70;;;4.10;81.90;;;;;;5021553;28;20859;-70
2021/12/12 02:46:42;;;;;;;2.60;1.05;;;4.10;82.00;;;;;;5022403;28;20116;-71
2021/12/12 02:49:25;;;;;;;4.22;1.73;;;4.10;82.10;;;;;;5026249;28;20045;-70
2021/12/12 02:51:54;;;;;;;4.03;1.88;;;4.20;82.10;;;;;;5027199;28;20038;-71
2021/12/12 02:54:23;;;;;;;3.83;1.25;;;4.20;82.00;;;;;;5023903;28;20064;-70
2021/12/12 02:56:50;;;;;;;1.98;1.13;;;4.10;82.10;;;;;;5024704;28;20091;-71
2021/12/12 02:59:23;;;;;;;4.13;1.67;;;4.10;82.10;;;;;;5021831;28;20175;-71
2021/12/12 03:01:56;;;;;;;2.20;1.10;;;4.10;82.10;;;;;;5020391;28;20038;-73
2021/12/12 03:04:25;;;;;;;3.38;1.50;;;4.00;82.00;;;;;;5021236;28;20051;-72
2021/12/12 03:06:53;;;;;;;3.05;1.30;;;4.00;82.00;;;;;;5024431;28;20041;-71
2021/12/12 03:09:26;;;;;;;3.70;1.48;;;3.90;82.00;;;;;;5024508;28;20537;-72
2021/12/12 03:11:58;;;;;;;1.42;0.85;;;4.00;81.90;;;;;;5022304;28;20044;-72
2021/12/12 03:14:31;;;;;;;6.00;1.50;;;3.90;81.80;;;;;;5022143;28;20048;-71
2021/12/12 03:17:08;;;;;;;1.77;0.90;;;3.90;81.70;;;;;;5024273;28;20045;-71
2021/12/12 03:19:36;;;;;;;2.08;1.00;;;3.80;81.70;;;;;;5021235;28;20033;-72
2021/12/12 03:22:05;;;;;;;4.22;1.65;;;3.80;81.70;;;;;;5036682;28;20562;-72
2021/12/12 03:24:33;;;;;;;2.60;1.40;;;3.80;81.60;;;;;;5021551;28;20107;-70
2021/12/12 03:27:02;;;;;;;5.85;1.77;;;3.70;81.70;;;;;;5021441;28;20048;-73
2021/12/12 03:29:33;;;;;;;3.65;2.10;;;3.70;81.70;;;;;;5023527;28;20049;-72
2021/12/12 03:32:04;;;;;;;4.10;2.00;;;3.70;81.70;;;;;;5021667;28;20406;-72
2021/12/12 03:34:34;;;;;;;5.47;1.88;;;3.70;81.60;;;;;;5023250;28;20037;-70
2021/12/12 03:37:03;;;;;;;5.43;2.00;;;3.70;81.70;;;;;;5022297;28;20053;-70
2021/12/12 03:39:34;;;;;;;6.30;2.50;;;3.60;81.70;;;;;;5026423;28;20049;-72
2021/12/12 03:42:05;;;;;;;3.90;1.45;;;3.60;81.80;;;;;;5027669;28;20049;-71
2021/12/12 03:44:34;;;;;;;3.63;1.92;;;3.60;81.90;;;;;;5020637;28;20056;-70
2021/12/12 03:47:06;;;;;;;3.67;1.42;;;3.60;82.00;;;;;;5021757;28;20505;-70
2021/12/12 03:49:34;;;;;;;2.75;1.65;;;3.60;82.00;;;;;;5026098;28;20059;-71
2021/12/12 03:52:01;;;;;;;2.03;0.85;;;3.50;82.20;;;;;;5021884;28;20056;-71
2021/12/12 03:54:28;;;;;;;6.32;1.80;;;3.60;82.30;;;;;;5019428;28;20077;-71
2021/12/12 03:56:56;;;;;;;3.08;1.13;;;3.60;82.30;;;;;;5020015;28;20409;-70
2021/12/12 03:59:25;;;;;;;1.67;1.02;;;3.70;82.30;;;;;;5020727;28;20444;-70
2021/12/12 04:01:54;;;;;;;2.40;1.52;;;3.70;82.30;;;;;;5015531;28;20072;-71
2021/12/12 04:04:25;;;;;;;4.90;1.65;;;3.70;82.30;;;;;;5021762;28;20049;-71
2021/12/12 04:06:54;;;;;;;3.47;1.48;;;3.70;82.20;;;;;;5020136;28;20413;-72
2021/12/12 04:09:22;;;;;;;2.80;1.02;;;3.60;82.20;;;;;;5019500;28;20281;-71
2021/12/12 04:11:53;;;;;;;2.38;0.93;;;3.70;82.20;;;;;;5021603;28;20030;-69
2021/12/12 04:14:22;;;;;;;7.30;2.58;;;3.60;82.10;;;;;;5017122;28;20072;-71
2021/12/12 04:16:52;;;;;;;1.85;0.90;;;3.60;82.20;;;;;;5012687;28;21870;-71
2021/12/12 04:19:20;;;;;;;3.20;1.20;;;3.60;82.20;;;;;;5013936;28;20056;-73
2021/12/12 04:21:47;;;;;;;3.72;0.95;;;3.60;82.10;;;;;;5009705;28;20045;-71
2021/12/12 04:24:21;;;;;;;3.25;1.17;;;3.60;82.10;;;;;;5036747;28;20447;-71
2021/12/12 04:26:49;;;;;;;2.95;1.00;;;3.50;82.20;;;;;;5014900;28;20044;-71
2021/12/12 04:29:19;;;;;;;4.47;1.40;;;3.50;82.20;;;;;;5022490;28;20045;-71
2021/12/12 04:31:50;;;;;;;4.78;1.10;;;3.40;82.30;;;;;;5006857;28;20123;-71
2021/12/12 04:34:18;;;;;;;4.20;1.63;;;3.40;82.30;;;;;;5015367;28;20041;-70
2021/12/12 04:36:46;;;;;;;3.78;1.50;;;3.50;82.30;;;;;;5021826;28;20056;-71
2021/12/12 04:39:16;;;;;;;3.33;0.93;;;3.50;82.30;;;;;;5024708;28;20418;-71
2021/12/12 04:41:44;;;;;;;2.33;0.88;;;3.50;82.30;;;;;;5012883;28;20052;-72
2021/12/12 04:44:11;;;;;;;3.55;1.65;;;3.50;82.40;;;;;;5020831;28;20518;-70
2021/12/12 04:52:24;;;;;;;2.00;0.98;;;3.50;82.50;;;;;;5022552;28;20045;-71
2021/12/12 04:54:59;;;;;;;3.80;1.60;;;3.40;82.50;;;;;;5027310;28;20054;-72
2021/12/12 04:57:32;;;;;;;1.52;0.70;;;3.40;82.60;;;;;;5022359;28;20050;-71
2021/12/12 05:00:05;;;;;;;2.70;1.00;;;3.40;82.50;;;;;;5025453;28;20046;-69
2021/12/12 05:02:41;;;;;;;4.60;1.38;;;3.40;82.60;;;;;;5021553;28;20041;-71
2021/12/12 05:05:13;;;;;;;2.75;1.10;;;3.40;82.70;;;;;;5019407;28;20124;-70
2021/12/12 05:07:48;;;;;;;4.28;1.35;;;3.40;82.70;;;;;;5021910;28;20037;-72
2021/12/12 05:10:21;;;;;;;5.55;1.35;;;3.40;82.70;;;;;;5012850;28;20045;-71
2021/12/12 05:12:52;;;;;;;6.05;2.00;;;3.40;82.70;;;;;;5021644;28;20043;-71
2021/12/12 05:15:23;;;;;;;3.90;1.30;;;3.40;82.80;;;;;;5023002;28;20042;-71
2021/12/12 05:17:56;;;;;;;3.80;1.60;;;3.40;82.80;;;;;;5020753;28;20525;-72
2021/12/12 05:20:29;;;;;;;3.85;1.50;;;3.40;82.80;;;;;;5023554;28;20045;-72
2021/12/12 05:22:59;;;;;;;3.97;2.22;;;3.40;83.00;;;;;;5024134;28;20530;-71
2021/12/12 05:25:29;;;;;;;2.60;1.45;;;3.40;83.00;;;;;;5017765;28;20078;-70
2021/12/12 05:27:59;;;;;;;5.45;1.48;;;3.40;82.90;;;;;;5004882;28;20041;-71
2021/12/12 05:30:31;;;;;;;4.03;1.83;;;3.40;82.90;;;;;;5018047;28;20042;-69
2021/12/12 05:33:00;;;;;;;5.25;1.90;;;3.40;83.00;;;;;;5016447;28;20601;-71
2021/12/12 05:35:34;;;;;;;4.55;1.77;;;3.40;83.00;;;;;;5020346;28;20038;-70
2021/12/12 05:38:02;;;;;;;3.25;1.52;;;3.50;83.00;;;;;;5018984;28;20053;-71
2021/12/12 05:40:32;;;;;;;3.95;1.98;;;3.40;83.10;;;;;;5018322;28;20048;-71
2021/12/12 05:43:02;;;;;;;5.40;1.67;;;3.40;83.10;;;;;;5026995;28;20042;-72
2021/12/12 05:45:32;;;;;;;4.47;1.83;;;3.40;83.20;;;;;;5025922;28;20038;-71
2021/12/12 05:48:02;;;;;;;3.22;1.33;;;3.40;83.20;;;;;;5026597;28;20063;-71
2021/12/12 05:50:30;;;;;;;4.18;1.23;;;3.40;83.30;;;;;;5026818;28;20224;-69
2021/12/12 05:52:57;;;;;;;7.07;2.83;;;3.40;83.30;;;;;;5026731;28;20042;-71
2021/12/12 05:55:34;;;;;;;2.63;1.30;;;3.40;83.30;;;;;;5025354;28;20503;-71
2021/12/12 05:58:05;;;;;;;12.25;2.05;;;3.40;83.30;;;;;;5025643;28;20045;-70
2021/12/12 06:00:36;;;;;;;2.22;1.40;;;3.40;83.30;;;;;;5022977;28;20460;-71
2021/12/12 06:03:08;;;;;;;2.65;1.05;;;3.40;83.30;;;;;;5028646;28;20051;-71
2021/12/12 06:05:36;;;;;;;2.95;1.17;;;3.50;83.30;;;;;;5028357;28;20045;-72
2021/12/12 06:08:04;;;;;;;3.50;1.42;;;3.50;83.30;;;;;;5032114;28;20045;-71
2021/12/12 06:10:33;;;;;;;3.28;1.27;;;3.50;83.30;;;;;;5030983;28;20116;-71
2021/12/12 06:13:00;;;;;;;4.40;1.50;;;3.50;83.30;;;;;;5027245;28;20413;-71
2021/12/12 06:15:32;;;;;;;2.13;0.88;;;3.50;83.30;;;;;;5022893;28;20388;-71
2021/12/12 06:18:00;;;;;;;9.45;1.60;;;3.50;83.40;;;;;;5025863;28;20042;-72
2021/12/12 06:20:33;;;;;;;2.47;0.93;;;3.40;83.40;;;;;;5027454;28;20053;-72
2021/12/12 06:23:00;;;;;;;3.58;1.63;;;3.50;83.50;;;;;;5023914;28;20048;-71
2021/12/12 06:25:28;;;;;;;3.25;1.02;;;3.50;83.50;;;;;;5023127;28;20164;-71
2021/12/12 06:27:55;;;;;;;6.85;1.63;;;3.50;83.50;;;;;;5014424;28;20045;-71
2021/12/12 06:30:24;;;;;;;2.42;1.20;;;3.50;83.50;;;;;;5029844;28;20069;-72
2021/12/12 06:32:52;;;;;;;1.38;0.88;;;3.50;83.50;;;;;;5025096;28;20042;-71
2021/12/12 06:35:20;;;;;;;3.33;1.50;;;3.50;83.50;;;;;;5029840;28;20050;-71
2021/12/12 06:37:49;;;;;;;3.30;1.83;;;3.50;83.40;;;;;;5029794;28;20044;-71
2021/12/12 06:40:19;;;;;;;4.40;1.42;;;3.50;83.40;;;;;;5027661;28;20044;-72
2021/12/12 06:42:48;;;;;;;4.70;2.00;;;3.50;83.40;;;;;;5029653;28;20097;-71
2021/12/12 06:45:15;;;;;;;4.30;2.38;;;3.50;83.40;;;;;;5030283;28;20041;-71
2021/12/12 06:47:42;;;;;;;2.47;1.42;;;3.50;83.40;;;;;;5023051;28;20780;-71
2021/12/12 06:50:11;;;;;;;3.65;1.58;;;3.50;83.40;;;;;;5022134;28;20052;-71
2021/12/12 06:52:38;;;;;;;5.85;1.52;;;3.50;83.50;;;;;;5024831;28;20582;-71
2021/12/12 06:55:10;;;;;;;1.77;1.05;;;3.50;83.50;;;;;;5020358;28;20535;-70
2021/12/12 06:57:38;;;;;;;4.70;1.52;;;3.50;83.50;;;;;;5021681;28;20054;-72
2021/12/12 07:00:08;;;;;;;3.05;1.42;;;3.50;83.50;;;;;;5020965;28;20045;-71
2021/12/12 07:02:35;;;;;;;2.33;1.10;;;3.50;83.60;;;;;;5024252;28;20045;-72
2021/12/12 07:05:03;;;;;;;8.68;1.73;;;3.50;83.70;;;;;;5022999;28;20476;-70
2021/12/12 07:07:30;;;;;;;3.45;1.58;;;3.50;83.70;;;;;;5023052;28;20037;-70
2021/12/12 07:09:57;;;;;;;4.50;1.60;;;3.60;83.60;;;;;;5024175;28;20045;-70
2021/12/12 07:12:26;;;;;;;6.10;1.67;;;3.60;83.70;;;;;;5019359;28;20041;-71
2021/12/12 07:14:54;;;;;;;3.30;1.80;;;3.60;83.80;;;;;;5020157;28;20124;-71
2021/12/12 07:17:23;;;;;;;5.40;2.05;;;3.60;83.90;;;;;;5023748;28;20045;-71
2021/12/12 07:19:50;;;;;;;6.85;1.50;;;3.60;83.90;;;;;;5024820;28;20086;-72
2021/12/12 07:22:17;;;;;;;7.05;2.05;;;3.60;83.90;;;;;;5027460;28;20041;-72
2021/12/12 07:24:45;;;;;;;4.13;2.03;;;3.60;83.90;;;;;;5027377;28;20046;-72
2021/12/12 07:27:15;;;;;;;5.22;2.20;;;3.70;84.00;;;;;;5027544;28;20052;-71
2021/12/12 07:29:43;;;;;;;3.63;1.75;;;3.60;84.00;;;;;;5024616;28;20686;-70
2021/12/12 07:32:11;;;;;;;4.60;2.25;;;3.70;83.90;;;;;;5023782;28;20045;-69
2021/12/12 07:34:39;;;;;;;4.40;1.90;;;3.70;83.90;;;;;;5025148;28;20128;-71
2021/12/12 07:37:07;;;;;;;4.97;2.05;;;3.70;83.90;;;;;;5024494;28;20076;-71
2021/12/12 07:39:35;;;;;;;4.43;2.28;;;3.70;84.00;;;;;;5028353;28;20161;-72
2021/12/12 07:42:04;;;;;;;5.57;2.53;;;3.70;84.00;;;;;;5024956;28;20037;-71
2021/12/12 07:44:34;;;;;;;8.27;2.53;;;3.70;84.10;;;;;;5024812;28;20041;-71
2021/12/12 07:47:04;;;;;;;6.67;1.80;;;3.80;84.20;;;;;;5023141;28;20486;-71
2021/12/12 07:49:34;;;;;;;7.70;2.20;;;3.80;84.20;;;;;;5023037;28;20048;-71
2021/12/12 07:52:03;;;;;;;3.57;1.83;;;3.80;84.10;;;;;;5019697;28;20468;-70
2021/12/12 07:54:37;;;;;;;10.75;1.58;;;3.90;84.00;;;;;;5003018;28;20848;-71
2021/12/12 07:57:05;;;;;;;4.32;1.58;;;3.90;84.00;;;;;;5022975;28;20041;-71
2021/12/12 07:59:34;;;;;;;3.60;1.38;;;4.00;83.90;;;;;;5019146;28;20071;-71
2021/12/12 08:02:05;;;;;;;4.72;1.98;;;4.00;83.90;;;;;;5019501;28;20483;-72
2021/12/12 08:04:37;;;;;;;5.65;2.13;;;4.00;83.80;;;;;;5023241;28;20041;-72
2021/12/12 08:07:11;;;;;;;2.45;1.50;;;4.00;83.80;;;;;;5023405;28;20041;-70
2021/12/12 08:09:42;;;;;;;7.63;1.80;;;4.10;83.70;;;;;;5020782;28;20042;-71
2021/12/12 08:12:10;;;;;;;3.50;1.45;;;4.10;83.70;;;;;;5021219;28;20041;-70
2021/12/12 08:14:38;;;;;;;7.20;1.45;;;4.10;83.70;;;;;;5021325;28;21282;-70
2021/12/12 08:17:07;;;;;;;4.68;1.38;;;4.20;83.70;;;;;;5022498;28;20470;-70
2021/12/12 08:19:35;;;;;;;2.55;1.20;;;4.10;83.60;;;;;;5004630;28;20041;-72
2021/12/12 08:22:05;;;;;;;2.33;1.00;;;4.20;83.60;;;;;;5020788;28;20121;-70
2021/12/12 08:24:34;;;;;;;;;;;4.20;83.60;;;;;;5022361;28;20048;-69
2021/12/12 08:27:03;;;;;;;6.35;1.13;;;4.20;83.50;;;;;;5020586;28;20488;-69
2021/12/12 08:29:31;;;;;;;2.40;1.20;;;4.20;83.50;;;;;;5020800;28;20044;-71
2021/12/12 08:31:58;;;;;;;2.50;1.10;;;4.20;83.40;;;;;;5022126;28;20077;-71
2021/12/12 08:34:28;;;;;;;3.85;1.40;;;4.30;83.30;;;;;;5022788;28;20459;-69
2021/12/12 08:36:58;;;;;;;5.15;1.27;;;4.30;83.40;;;;;;5022344;28;20581;-72
2021/12/12 08:39:27;;;;;;;4.15;1.17;;;4.30;83.30;;;;;;5021665;28;20386;-69
2021/12/12 08:41:56;;;;;;;3.10;0.90;;;4.30;83.20;;;;;;5020683;28;20033;-71
2021/12/12 08:44:24;;;;;;;2.58;1.70;;;4.40;83.20;;;;;;5022553;28;20060;-70
2021/12/12 08:46:53;;;;;;;1.50;0.70;;;4.40;83.10;;;;;;5020364;28;20121;-70
2021/12/12 08:49:23;;;;;;;3.33;0.98;;;4.50;83.00;;;;;;5020248;28;20119;-70
2021/12/12 08:51:55;;;;;;;3.00;0.90;;;4.50;82.80;;;;;;5021142;28;20045;-70
2021/12/12 08:54:27;;;;;;;2.92;1.10;;;4.50;82.90;;;;;;5020296;28;20125;-70
2021/12/12 08:57:02;;;;;;;4.57;1.20;;;4.50;82.70;;;;;;5019786;28;20643;-71
2021/12/12 08:59:32;;;;;;;3.22;1.20;;;4.60;82.70;;;;;;5021420;28;20180;-70
2021/12/12 09:02:01;;;;;;;1.70;0.85;;;4.60;82.50;;;;;;5020793;28;20041;-65
2021/12/12 09:04:30;;;;;;;;;;;4.60;82.50;;;;;;5021546;28;20041;-66
2021/12/12 09:07:02;;;;;;;3.35;1.33;;;4.70;82.40;;;;;;5020508;28;19932;-65
2021/12/12 09:09:37;;;;;;;4.60;1.00;;;4.70;82.40;;;;;;5020120;28;20053;-66
2021/12/12 09:12:12;;;;;;;5.68;1.80;;;4.70;82.30;;;;;;5020925;28;20458;-66
2021/12/12 09:14:46;;;;;;;2.78;1.33;;;4.70;82.10;;;;;;5002997;28;20045;-66
2021/12/12 09:17:20;;;;;;;4.00;1.63;;;4.80;82.00;;;;;;5018394;28;20049;-64
2021/12/12 09:19:52;;;;;;;3.08;1.50;;;4.80;81.60;;;;;;5019398;28;20033;-65
2021/12/12 09:22:30;;;;;;;4.65;1.60;;;4.80;81.60;;;;;;5019489;28;21462;-64
2021/12/12 09:25:03;;;;;;;9.10;1.48;;;4.90;81.50;;;;;;5020947;28;20045;-66
2021/12/12 09:27:40;;;;;;;5.00;1.65;;;4.90;81.40;;;;;;5019828;28;20045;-64
2021/12/12 09:30:12;;;;;;;4.97;1.45;;;4.90;81.50;;;;;;5023997;28;20096;-67
2021/12/12 09:32:45;;;;;;;4.47;1.52;;;4.90;81.20;;;;;;5022847;28;20038;-64
2021/12/12 09:35:19;;;;;;;5.05;1.85;;;4.90;81.30;;;;;;5023675;28;20128;-64
2021/12/12 09:37:53;;;;;;;3.65;1.15;;;5.00;81.20;;;;;;5022879;28;20493;-66
2021/12/12 09:40:38;;;;;;;2.97;1.67;;;5.00;81.10;;;;;;5024448;28;20047;-66
2021/12/12 09:43:20;;;;;;;4.10;1.45;;;5.00;81.10;;;;;;5022096;28;20456;-67
2021/12/12 09:46:01;;;;;;;2.65;1.23;;;5.00;81.20;;;;;;5022608;28;20048;-67
2021/12/12 09:52:23;;;;;;;5.22;1.33;;;5.10;81.20;;;;;;5023959;28;20128;-65
2021/12/12 09:54:56;;;;;;;5.45;0.88;;;5.20;81.10;;;;;;5023414;28;20495;-64
2021/12/12 09:57:27;;;;;;;5.20;1.05;;;5.20;81.20;;;;;;5028799;28;20041;-67
2021/12/12 10:00:08;;;;;;;4.03;1.40;;;5.20;81.10;;;;;;5029009;28;20131;-65
2021/12/12 10:02:54;;;;;;;2.25;0.88;;;5.20;81.10;;;;;;5025263;28;20037;-69
2021/12/12 10:05:31;;;;;;;2.63;0.90;;;5.30;81.00;;;;;;5024084;28;20050;-66
2021/12/12 10:08:09;;;;;;;4.32;1.10;;;5.30;80.70;;;;;;5024189;28;20104;-67
2021/12/12 10:10:52;;;;;;;5.35;1.10;;;5.30;80.60;;;;;;5024778;28;20421;-66
2021/12/12 10:13:24;;;;;;;4.65;1.35;;;5.30;80.60;;;;;;5023620;28;20037;-67
2021/12/12 10:15:57;;;;;;;3.60;1.17;;;5.30;80.60;;;;;;5025451;28;20071;-68
2021/12/12 10:18:38;;;;;;;3.80;1.35;;;5.30;80.60;;;;;;5024578;28;20407;-66
2021/12/12 10:21:11;;;;;;;4.28;2.47;;;5.30;80.40;;;;;;5023596;28;20049;-67
2021/12/12 10:23:57;;;;;;;7.90;2.42;;;5.30;80.40;;;;;;5025696;28;20061;-64
2021/12/12 10:26:32;;;;;;;8.63;2.70;;;5.40;80.30;;;;;;5024884;28;20060;-65
2021/12/12 10:29:07;;;;;;;9.77;3.30;;;5.40;80.20;;;;;;5022777;28;20045;-67
2021/12/12 10:31:39;;;;;;;3.20;1.63;;;5.50;80.30;;;;;;5025195;28;20491;-64
2021/12/12 10:34:10;;;;;;;6.05;1.70;;;5.40;79.90;;;;;;5021575;28;20041;-66
2021/12/12 10:36:43;;;;;;;6.00;2.20;;;5.50;79.70;;;;;;5021430;28;20037;-67
2021/12/12 10:39:13;;;;;;;6.40;1.52;;;5.50;79.80;;;;;;5023071;28;20039;-67
2021/12/12 10:41:46;;;;;;;7.07;2.38;;;5.50;79.70;;;;;;5020797;28;20126;-67
2021/12/12 10:44:16;;;;;;;9.40;2.75;;;5.50;79.60;;;;;;5023345;28;20045;-66
2021/12/12 10:46:56;;;;;;;5.55;2.38;;;5.50;79.50;;;;;;5022311;28;20055;-66
2021/12/12 10:49:30;;;;;;;3.60;1.70;;;5.60;79.40;;;;;;5022100;28;20060;-68
2021/12/12 10:52:06;;;;;;;6.97;2.67;;;5.60;79.50;;;;;;5019852;28;20901;-67
2021/12/12 10:54:39;;;;;;;6.75;2.90;;;5.60;79.60;;;;;;5022816;28;20045;-65
2021/12/12 10:57:11;;;;;;;8.43;2.80;;;5.70;79.50;;;;;;5023017;28;20175;-67
2021/12/12 10:59:44;;;;;;;8.20;3.03;;;5.70;79.50;;;;;;5002047;28;20052;-68
2021/12/12 11:02:17;;;;;;;7.57;3.03;;;5.70;79.50;;;;;;5001660;28;20038;-67
2021/12/12 11:04:49;;;;;;;4.90;2.08;;;5.70;79.60;;;;;;5004093;28;20048;-66
2021/12/12 11:07:22;;;;;;;5.22;1.77;;;5.70;79.60;;;;;;4986914;28;20053;-65
2021/12/12 11:09:57;;;;;;;5.13;1.63;;;5.70;79.60;;;;;;5004696;28;20046;-67
2021/12/12 11:12:34;;;;;;;5.43;1.85;;;5.70;79.50;;;;;;5003455;28;20042;-66
2021/12/12 11:15:06;;;;;;;6.32;1.60;;;5.70;79.50;;;;;;5005559;28;20069;-66
2021/12/12 11:17:40;;;;;;;5.65;1.85;;;5.70;79.50;;;;;;4985628;28;20309;-65
2021/12/12 11:20:14;;;;;;;5.25;1.98;;;5.70;79.40;;;;;;5002491;28;21283;-67
2021/12/12 11:22:47;;;;;;;6.00;1.75;;;5.70;79.40;;;;;;5004091;28;20045;-67
2021/12/12 11:25:25;;;;;;;5.90;2.78;;;5.80;79.40;;;;;;5000449;28;20140;-65
2021/12/12 11:27:57;;;;;;;6.55;2.88;;;5.80;79.30;;;;;;5003681;28;20527;-68
2021/12/12 11:30:27;;;;;;;5.18;2.63;;;5.70;79.40;;;;;;5004733;28;20042;-67
2021/12/12 11:32:56;;;;;;;5.22;2.08;;;5.80;79.50;;;;;;5002880;28;20051;-66
2021/12/12 11:35:26;;;;;;;5.43;2.22;;;5.70;79.50;;;;;;5005944;28;20084;-68
2021/12/12 11:37:57;;;;;;;7.43;2.55;;;5.80;79.50;;;;;;5002940;28;20054;-67
2021/12/12 11:40:28;;;;;;;5.88;2.35;;;5.70;79.60;;;;;;5001499;28;20045;-69
2021/12/12 11:43:04;;;;;;;11.63;4.47;;;5.70;79.70;;;;;;5002667;28;20050;-66
2021/12/12 11:45:38;;;;;;;12.10;3.33;;;5.70;79.90;;;;;;5001520;28;20038;-68
2021/12/12 11:48:15;;;;;;;9.07;3.55;;;5.70;80.00;;;;;;5004710;28;20100;-68
2021/12/12 11:50:50;;;;;;;7.97;3.20;;;5.70;80.20;;;;;;5004579;28;20061;-67
2021/12/12 11:53:30;;;;;;;10.00;3.63;;;5.70;80.30;;;;;;4999649;28;20088;-66
2021/12/12 11:56:01;;;;;;;7.60;2.60;;;5.70;80.40;;;;;;5003746;28;20045;-67
2021/12/12 11:58:35;;;;;;;9.30;3.78;;;5.70;80.40;;;;;;5014100;28;20724;-67
2021/12/12 12:01:10;;;;;;;4.82;2.47;;;5.70;80.50;;;;;;5020171;28;20064;-68
2021/12/12 12:04:10;;;;;;;5.47;2.35;;;5.70;80.60;;;;;;5022560;28;20136;-66
2021/12/12 12:06:57;;;;;;;10.35;4.78;;;5.70;80.80;;;;;;5014195;28;20061;-66
2021/12/12 12:09:36;;;;;;;10.98;4.03;;;5.70;81.00;;;;;;5019689;28;20037;-67
2021/12/12 12:12:12;;;;;;;7.95;3.38;;;5.70;81.40;;;;;;5019364;28;20042;-66
2021/12/12 12:15:02;;;;;;;5.47;2.40;;;5.70;81.50;;;;;;5022127;28;20052;-66
2021/12/12 12:17:37;;;;;;;5.70;3.38;;;5.70;81.80;;;;;;5021022;28;20045;-66
2021/12/12 12:20:11;;;;;;;5.95;2.22;;;5.70;82.10;;;;;;5019869;28;20033;-66
2021/12/12 12:22:45;;;;;;;7.20;2.78;;;5.70;82.30;;;;;;5021829;28;20063;-66
2021/12/12 12:25:20;;;;;;;6.82;2.00;;;5.70;82.50;;;;;;5021933;28;20499;-65
2021/12/12 12:27:54;;;;;;;5.15;2.05;;;5.60;82.70;;;;;;5019626;28;20136;-67
2021/12/12 12:31:10;;;;;;;5.13;1.85;;;5.70;82.90;;;;;;5021995;28;20041;-67
2021/12/12 12:34:09;;;;;;;3.42;1.50;;;5.60;83.00;;;;;;5024619;28;20581;-67
2021/12/12 12:37:32;;;;;;;6.50;2.17;;;5.60;83.10;;;;;;4989094;28;20270;-67
2021/12/12 12:40:36;;;;;;;3.83;1.77;;;5.60;83.20;;;;;;5018747;28;20041;-67
2021/12/12 12:43:36;;;;;;;5.28;2.45;;;5.60;83.30;;;;;;5021264;28;20037;-67
2021/12/12 12:46:46;;;;;;;6.65;1.90;;;5.60;83.50;;;;;;5022421;28;20052;-67
2021/12/12 12:50:07;;;;;;;5.65;2.20;;;5.60;83.70;;;;;;5020033;28;20046;-66
2021/12/12 12:53:08;;;;;;;4.82;1.83;;;5.70;83.80;;;;;;5022030;28;20537;-66
2021/12/12 12:56:07;;;;;;;6.57;1.98;;;5.70;84.10;;;;;;5023027;28;20040;-66
2021/12/12 12:58:52;;;;;;;5.53;1.83;;;5.70;84.10;;;;;;5021708;28;20502;-64
2021/12/12 13:01:34;;;;;;;5.10;2.00;;;5.70;84.30;;;;;;5021088;28;20041;-67
2021/12/12 13:04:16;;;;;;;4.03;1.52;;;5.70;84.40;;;;;;5021710;28;20065;-67
2021/12/12 13:07:11;;;;;;;4.05;1.67;;;5.70;84.70;;;;;;5018136;28;20451;-66
2021/12/12 13:09:52;;;;;;;3.95;1.67;;;5.70;84.80;;;;;;5021979;28;20076;-65
2021/12/12 13:12:34;;;;;;;5.65;1.85;;;5.70;84.90;;;;;;5016622;28;20535;-66
2021/12/12 13:15:12;;;;;;;3.97;1.13;;;5.70;85.00;;;;;;5021448;28;20052;-66
2021/12/12 13:17:52;;;;;;;4.53;1.40;;;5.70;85.00;;;;;;5023572;28;20037;-67
2021/12/12 13:20:42;;;;;;;7.50;1.63;;;5.70;85.00;;;;;;5021030;28;20491;-66
2021/12/12 13:23:32;;;;;;;4.47;2.33;;;5.70;85.10;;;;;;5022940;28;20042;-68
2021/12/12 13:26:05;;;;;;;5.53;1.70;;;5.70;85.20;;;;;;5021837;28;20160;-68
2021/12/12 13:28:47;;;;;;;5.03;2.03;;;5.70;85.30;;;;;;5020859;28;20041;-67
2021/12/12 13:31:22;;;;;;;8.10;3.42;;;5.70;85.40;;;;;;5007490;28;20418;-66
2021/12/12 13:34:05;;;;;;;6.10;3.25;;;5.70;85.40;;;;;;5023623;28;20038;-67
2021/12/12 13:36:50;;;;;;;99.25;42.60;;;5.70;85.50;;;;;;5021173;28;20118;-66
2021/12/12 13:39:25;;;;;;;75.97;37.33;;;5.60;85.70;;;;;;5021818;28;20124;-67
2021/12/12 13:42:14;;;;;;;52.17;28.17;;;5.60;85.80;;;;;;5020831;28;20043;-68
2021/12/12 13:44:56;;;;;;;34.47;18.75;;;5.60;85.90;;;;;;5027449;28;20041;-68
2021/12/12 13:47:34;;;;;;;26.27;13.98;;;5.60;86.00;;;;;;5025513;28;20039;-68
2021/12/12 13:50:07;;;;;;;22.42;11.15;;;5.60;86.10;;;;;;5023874;28;20049;-68